Time;durP1;ratioP1;P1;durP2;ratioP2;P2;SDS_P1;SDS_P2;PMS_P1;PMS_P2;Temp;Humidity;BMP_temperature;BMP_pressure;BME280_temperature;BME280_humidity;BME280_pressure;Samples;Min_cycle;Max_cycle;Signal;HPM_P1;HPM_P2
2023/05/22 00:00:38;;;;;;;13.55;9.40;;;19.70;99.90;;;;;;12498626;28;20052;-37
2023/05/22 00:06:44;;;;;;;12.07;8.68;;;19.80;99.90;;;;;;12491249;28;20053;-36
2023/05/22 00:12:47;;;;;;;13.45;9.52;;;19.80;99.90;;;;;;12510244;28;20095;-37
2023/05/22 00:18:54;;;;;;;15.02;9.18;;;19.80;99.90;;;;;;12535298;28;20102;-37
2023/05/22 00:25:01;;;;;;;11.63;8.82;;;19.70;99.90;;;;;;12534278;28;20048;-37
2023/05/22 00:31:05;;;;;;;13.45;9.88;;;19.60;99.90;;;;;;12514581;28;20049;-36
2023/05/22 00:37:10;;;;;;;14.45;11.35;;;19.50;99.90;;;;;;12529888;28;20056;-36
2023/05/22 00:43:16;;;;;;;17.75;11.95;;;18.90;99.90;;;;;;12532789;28;20099;-36
2023/05/22 00:49:20;;;;;;;19.77;12.60;;;18.70;99.90;;;;;;12525180;28;20532;-36
2023/05/22 00:55:23;;;;;;;18.83;13.02;;;18.80;99.90;;;;;;12515660;28;20065;-36
2023/05/22 01:01:32;;;;;;;17.05;13.27;;;18.30;99.90;;;;;;12514218;28;20171;-37
2023/05/22 01:07:36;;;;;;;16.38;12.38;;;18.20;99.90;;;;;;12538390;28;20409;-38
2023/05/22 01:13:49;;;;;;;16.42;12.52;;;18.40;99.90;;;;;;12508633;28;20532;-37
2023/05/22 01:20:09;;;;;;;19.33;13.75;;;18.50;99.90;;;;;;12520392;28;20045;-36
2023/05/22 01:26:52;;;;;;;22.02;13.30;;;18.40;99.90;;;;;;12508410;28;20608;-36
2023/05/22 01:33:00;;;;;;;17.88;13.52;;;18.30;99.90;;;;;;12482468;28;20045;-36
2023/05/22 01:39:06;;;;;;;15.32;12.68;;;18.30;99.90;;;;;;12500528;28;20049;-36
2023/05/22 01:45:11;;;;;;;15.80;12.85;;;18.30;99.90;;;;;;12485307;28;20053;-36
2023/05/22 01:51:37;;;;;;;15.68;12.65;;;18.40;99.90;;;;;;12504731;28;20061;-36
2023/05/22 01:57:56;;;;;;;16.38;13.95;;;18.40;99.90;;;;;;12503961;28;20049;-36
2023/05/22 02:04:02;;;;;;;17.60;14.45;;;18.20;99.90;;;;;;12510538;28;20081;-36
2023/05/22 02:10:10;;;;;;;16.48;13.15;;;18.10;99.90;;;;;;12508822;28;20135;-37
2023/05/22 02:16:13;;;;;;;19.38;15.00;;;18.20;99.90;;;;;;12468800;28;20063;-37
2023/05/22 02:22:17;;;;;;;18.38;14.60;;;18.30;99.90;;;;;;12532802;28;20447;-37
2023/05/22 02:28:21;;;;;;;19.63;14.30;;;18.20;99.90;;;;;;12522285;28;20175;-37
2023/05/22 02:34:25;;;;;;;20.48;14.57;;;18.10;99.90;;;;;;12551954;28;20044;-37
2023/05/22 02:40:37;;;;;;;17.20;14.63;;;17.90;99.90;;;;;;12539036;28;20048;-36
2023/05/22 02:46:41;;;;;;;17.40;14.30;;;17.90;99.90;;;;;;12525263;28;20053;-37
2023/05/22 02:52:44;;;;;;;15.63;13.55;;;17.80;99.90;;;;;;12512628;28;20041;-36
2023/05/22 02:58:47;;;;;;;17.77;13.57;;;17.80;99.90;;;;;;12542082;28;20489;-36
2023/05/22 03:04:50;;;;;;;13.43;11.93;;;17.80;99.90;;;;;;12547737;28;20040;-37
2023/05/22 03:10:55;;;;;;;15.55;11.75;;;17.50;99.90;;;;;;12553219;28;20068;-37
2023/05/22 03:16:59;;;;;;;14.32;11.27;;;17.30;99.90;;;;;;12460524;28;20485;-39
2023/05/22 03:23:07;;;;;;;14.75;10.77;;;17.40;99.90;;;;;;12489669;28;20056;-40
2023/05/22 03:29:15;;;;;;;16.90;10.20;;;17.50;99.90;;;;;;12464578;28;20173;-38
2023/05/22 03:35:25;;;;;;;15.00;11.32;;;17.40;99.90;;;;;;12479440;28;20081;-38
2023/05/22 03:41:31;;;;;;;13.82;11.10;;;17.60;99.90;;;;;;12477558;28;20410;-38
2023/05/22 03:47:34;;;;;;;12.30;10.05;;;17.60;99.90;;;;;;12486506;28;20474;-39
2023/05/22 03:53:40;;;;;;;14.27;10.40;;;17.70;99.90;;;;;;12473324;28;20125;-38
2023/05/22 03:59:43;;;;;;;13.95;10.50;;;17.70;99.90;;;;;;12473326;28;20449;-39
2023/05/22 04:05:47;;;;;;;;;;;17.80;99.90;;;;;;12471267;28;20049;-38
2023/05/22 04:11:54;;;;;;;12.07;9.48;;;17.90;99.90;;;;;;12476238;28;20401;-39
2023/05/22 04:18:00;;;;;;;13.07;10.43;;;17.80;99.90;;;;;;12470219;28;20075;-38
2023/05/22 04:24:05;;;;;;;13.63;10.00;;;17.80;99.90;;;;;;12468072;28;20996;-39
2023/05/22 04:30:15;;;;;;;12.93;9.93;;;17.50;99.90;;;;;;12487950;28;20517;-38
2023/05/22 04:36:24;;;;;;;13.70;9.77;;;17.30;99.90;;;;;;12485186;28;20041;-39
2023/05/22 04:42:29;;;;;;;13.32;10.60;;;17.20;99.90;;;;;;12489903;28;20046;-40
2023/05/22 04:48:35;;;;;;;15.80;10.07;;;17.30;99.90;;;;;;12480511;28;20045;-38
2023/05/22 04:54:43;;;;;;;12.25;9.00;;;17.40;99.90;;;;;;12480195;28;20099;-38
2023/05/22 05:00:51;;;;;;;10.80;8.65;;;17.60;99.90;;;;;;12486094;28;20167;-38
2023/05/22 05:07:01;;;;;;;15.10;10.50;;;18.00;99.90;;;;;;12486779;28;20083;-39
2023/05/22 05:13:09;;;;;;;12.90;10.57;;;17.80;99.90;;;;;;12479437;28;20072;-38
2023/05/22 05:19:16;;;;;;;12.85;8.80;;;17.90;99.90;;;;;;12480898;28;20042;-39
2023/05/22 05:25:20;;;;;;;13.60;9.73;;;17.90;99.90;;;;;;12472246;28;20113;-39
2023/05/22 05:31:23;;;;;;;10.25;8.68;;;18.10;99.90;;;;;;12460894;28;20107;-40
2023/05/22 05:37:28;;;;;;;11.45;9.63;;;18.20;99.90;;;;;;12444704;28;20041;-38
2023/05/22 05:43:31;;;;;;;12.85;10.23;;;18.50;99.90;;;;;;12455098;28;20049;-39
2023/05/22 05:49:36;;;;;;;;;;;18.40;99.90;;;;;;12477745;28;20374;-39
2023/05/22 05:55:47;;;;;;;11.98;9.65;;;18.00;99.90;;;;;;12478690;28;19924;-39
2023/05/22 06:01:56;;;;;;;12.00;10.05;;;18.00;99.90;;;;;;12479803;28;20046;-39
2023/05/22 06:08:07;;;;;;;12.15;10.15;;;18.20;99.90;;;;;;12488303;28;20095;-39
2023/05/22 06:14:17;;;;;;;12.55;9.38;;;18.20;99.90;;;;;;12499514;28;20049;-38
2023/05/22 06:20:33;;;;;;;12.35;9.65;;;18.30;99.90;;;;;;12523508;28;20503;-38
2023/05/22 06:26:44;;;;;;;12.23;9.85;;;18.40;99.90;;;;;;12525887;28;20056;-38
2023/05/22 06:32:53;;;;;;;12.23;8.50;;;18.50;99.90;;;;;;12510053;28;20051;-37
2023/05/22 06:39:06;;;;;;;12.98;8.70;;;18.70;99.90;;;;;;12526993;28;20387;-38
2023/05/22 06:45:16;;;;;;;13.70;8.73;;;18.80;99.90;;;;;;12489569;28;20140;-38
2023/05/22 06:51:28;;;;;;;12.23;9.10;;;19.00;99.90;;;;;;12514122;28;20052;-37
2023/05/22 06:57:36;;;;;;;14.27;8.93;;;19.10;99.90;;;;;;12541318;28;20486;-38
2023/05/22 07:03:45;;;;;;;12.13;9.45;;;19.10;99.90;;;;;;12535184;28;20054;-38
2023/05/22 07:09:54;;;;;;;15.43;9.50;;;19.00;99.90;;;;;;12540195;28;20049;-38
2023/05/22 07:16:03;;;;;;;12.18;8.60;;;19.20;99.90;;;;;;12495475;28;20044;-38
2023/05/22 07:22:24;;;;;;;12.65;8.55;;;19.40;99.90;;;;;;12511209;28;20173;-40
2023/05/22 07:28:31;;;;;;;15.57;8.48;;;19.90;99.90;;;;;;12510142;28;20102;-39
2023/05/22 07:34:37;;;;;;;11.45;8.82;;;20.50;99.90;;;;;;12525033;28;20075;-39
2023/05/22 07:40:43;;;;;;;9.07;7.57;;;20.90;99.90;;;;;;12535936;28;20064;-38
2023/05/22 07:46:48;;;;;;;12.35;8.98;;;20.80;99.90;;;;;;12535686;28;20042;-38
2023/05/22 07:52:52;;;;;;;9.75;7.88;;;20.70;99.90;;;;;;12531749;28;20067;-39
2023/05/22 07:58:56;;;;;;;16.10;9.07;;;21.00;99.90;;;;;;12532093;28;20049;-38
2023/05/22 08:05:00;;;;;;;13.05;8.88;;;21.00;99.90;;;;;;12528624;28;20357;-38
2023/05/22 08:11:04;;;;;;;11.43;8.68;;;20.90;99.90;;;;;;12516535;28;20049;-39
2023/05/22 08:17:09;;;;;;;11.10;8.30;;;20.70;99.90;;;;;;12527108;28;20150;-38
2023/05/22 08:23:14;;;;;;;14.43;9.25;;;21.10;99.90;;;;;;12533780;28;20382;-38
2023/05/22 08:29:17;;;;;;;11.90;8.15;;;21.30;99.90;;;;;;12532168;28;20056;-39
2023/05/22 08:35:22;;;;;;;12.77;7.82;;;21.40;99.90;;;;;;12533487;28;20044;-39
2023/05/22 08:41:26;;;;;;;;;;;21.80;99.90;;;;;;12528482;28;20393;-38
2023/05/22 08:47:31;;;;;;;10.95;8.15;;;22.10;99.90;;;;;;12533893;28;19921;-38
2023/05/22 08:53:39;;;;;;;11.23;8.15;;;22.00;99.90;;;;;;12535537;28;20053;-38
2023/05/22 08:59:44;;;;;;;12.38;8.70;;;21.70;99.90;;;;;;12529527;28;21427;-38
2023/05/22 09:05:48;;;;;;;10.55;8.75;;;21.50;99.90;;;;;;12502477;28;20074;-39
2023/05/22 09:11:54;;;;;;;12.05;8.38;;;21.70;99.90;;;;;;12528100;28;20048;-40
2023/05/22 09:17:58;;;;;;;12.60;8.50;;;21.70;99.90;;;;;;12488377;28;20053;-38
2023/05/22 09:24:02;;;;;;;15.73;8.88;;;22.00;99.90;;;;;;12474736;28;20525;-39
2023/05/22 09:30:08;;;;;;;16.20;8.73;;;21.90;99.90;;;;;;12484762;28;20052;-39
2023/05/22 09:36:13;;;;;;;11.20;8.38;;;22.60;99.90;;;;;;12466369;28;20042;-39
2023/05/22 09:42:35;;;;;;;12.45;7.70;;;23.30;99.90;;;;;;12496080;28;20386;-39
2023/05/22 09:48:39;;;;;;;10.55;8.50;;;23.40;99.90;;;;;;12480024;28;20139;-40
2023/05/22 09:54:53;;;;;;;11.02;8.32;;;23.80;99.90;;;;;;12497424;28;20041;-39
2023/05/22 10:01:01;;;;;;;10.35;8.23;;;23.80;99.90;;;;;;12490148;28;20136;-39
2023/05/22 10:07:05;;;;;;;12.30;7.75;;;23.50;99.90;;;;;;12491871;28;20052;-39
2023/05/22 10:13:12;;;;;;;12.25;8.52;;;24.30;99.90;;;;;;12503074;28;20059;-39
2023/05/22 10:19:20;;;;;;;9.32;7.07;;;24.40;99.90;;;;;;12535329;28;20485;-37
2023/05/22 10:25:24;;;;;;;11.55;8.13;;;24.60;99.90;;;;;;12551161;28;20049;-40
2023/05/22 10:32:21;;;;;;;12.30;8.45;;;24.70;99.90;;;;;;12528415;28;20057;-39
2023/05/22 10:38:49;;;;;;;12.82;8.35;;;25.00;99.90;;;;;;12524991;28;20139;-37
2023/05/22 10:44:52;;;;;;;9.57;7.63;;;25.40;99.90;;;;;;12524417;28;20041;-38
2023/05/22 10:50:56;;;;;;;9.98;7.53;;;25.70;99.90;;;;;;12537915;28;20060;-37
2023/05/22 10:57:16;;;;;;;9.52;7.25;;;25.80;99.90;;;;;;12533503;28;20493;-38
2023/05/22 11:03:20;;;;;;;9.50;8.18;;;25.80;99.90;;;;;;12522076;28;20087;-37
2023/05/22 11:09:44;;;;;;;13.93;7.55;;;25.50;99.90;;;;;;12530944;28;20048;-37
2023/05/22 11:15:49;;;;;;;9.77;6.82;;;26.10;99.90;;;;;;12524440;28;20565;-37
2023/05/22 11:22:03;;;;;;;8.32;7.20;;;26.60;99.90;;;;;;12539686;28;20057;-38
2023/05/22 11:28:11;;;;;;;11.30;7.95;;;26.90;99.90;;;;;;12542578;28;20094;-37
2023/05/22 11:34:15;;;;;;;10.45;8.57;;;26.20;99.90;;;;;;12549371;28;20149;-38
2023/05/22 11:40:23;;;;;;;8.57;7.38;;;25.20;99.90;;;;;;12538681;28;20113;-37
2023/05/22 11:46:29;;;;;;;10.68;7.55;;;25.60;99.90;;;;;;12536757;28;20048;-37
2023/05/22 11:52:35;;;;;;;11.10;7.82;;;25.90;99.90;;;;;;12529411;28;20102;-37
2023/05/22 11:58:39;;;;;;;9.15;7.72;;;25.60;99.90;;;;;;12550468;28;20183;-38
2023/05/22 12:04:43;;;;;;;8.98;7.38;;;25.80;99.90;;;;;;12526274;28;20049;-38
2023/05/22 12:10:51;;;;;;;13.02;8.25;;;26.10;99.90;;;;;;12538591;28;20048;-38
2023/05/22 12:17:05;;;;;;;10.13;7.75;;;25.80;99.90;;;;;;12546179;28;20061;-39
2023/05/22 12:23:25;;;;;;;11.47;8.70;;;26.10;99.90;;;;;;12550052;28;20052;-38
2023/05/22 12:29:29;;;;;;;13.65;8.43;;;25.80;99.90;;;;;;12522770;28;20052;-37
2023/05/22 12:35:32;;;;;;;10.48;7.55;;;25.90;99.90;;;;;;12541758;28;20562;-37
2023/05/22 12:41:37;;;;;;;10.98;8.38;;;25.80;99.90;;;;;;12555998;28;20409;-37
2023/05/22 12:47:41;;;;;;;8.18;7.30;;;25.90;99.90;;;;;;12518497;28;20095;-38
2023/05/22 12:53:44;;;;;;;13.32;7.30;;;26.40;99.90;;;;;;12536927;28;20052;-37
2023/05/22 12:59:47;;;;;;;13.43;8.10;;;26.70;99.90;;;;;;12543794;28;20078;-37
2023/05/22 13:05:50;;;;;;;10.85;7.78;;;26.40;99.90;;;;;;12520959;28;20045;-38
2023/05/22 13:11:53;;;;;;;;;;;25.80;99.90;;;;;;12548950;28;20064;-38
2023/05/22 13:17:57;;;;;;;11.50;7.85;;;25.90;99.90;;;;;;12531330;28;19935;-38
2023/05/22 13:24:00;;;;;;;9.48;7.25;;;26.80;99.90;;;;;;12500476;28;20057;-38
2023/05/22 13:30:03;;;;;;;;;;;27.20;99.90;;;;;;12506225;28;20412;-38
2023/05/22 13:36:06;;;;;;;11.23;8.48;;;27.00;99.90;;;;;;12505280;28;19921;-38
2023/05/22 13:42:10;;;;;;;28.60;13.40;;;27.20;99.90;;;;;;12542886;28;20048;-38
2023/05/22 13:48:14;;;;;;;13.50;8.23;;;27.00;99.90;;;;;;12509651;28;20071;-37
2023/05/22 13:54:17;;;;;;;14.55;9.38;;;27.10;99.90;;;;;;12553616;28;20037;-37
2023/05/22 14:00:24;;;;;;;13.07;7.53;;;26.40;99.90;;;;;;12554016;28;20048;-37
2023/05/22 14:06:29;;;;;;;8.60;7.75;;;26.10;99.90;;;;;;12537733;28;20048;-39
2023/05/22 14:12:34;;;;;;;12.68;7.88;;;25.70;99.90;;;;;;12547334;28;20472;-37
2023/05/22 14:18:38;;;;;;;11.75;8.23;;;25.70;99.90;;;;;;12528982;28;20053;-39
2023/05/22 14:24:42;;;;;;;7.72;6.30;;;25.30;99.90;;;;;;12534779;28;20107;-37
2023/05/22 14:30:51;;;;;;;7.90;6.13;;;24.10;99.90;;;;;;12505576;28;20058;-37
2023/05/22 14:36:57;;;;;;;7.90;5.50;;;23.50;99.90;;;;;;12545258;28;20501;-37
2023/05/22 14:42:59;;;;;;;7.00;5.97;;;23.10;99.90;;;;;;12546122;28;20056;-36
2023/05/22 14:49:02;;;;;;;8.52;5.68;;;22.80;99.90;;;;;;12527077;28;20049;-36
2023/05/22 14:55:06;;;;;;;8.95;5.45;;;22.60;99.90;;;;;;12557896;28;20044;-37
2023/05/22 15:01:09;;;;;;;5.93;4.85;;;22.40;99.90;;;;;;12540708;28;20052;-37
2023/05/22 15:07:12;;;;;;;6.65;4.60;;;22.30;99.90;;;;;;12557861;28;20063;-36
2023/05/22 15:13:15;;;;;;;9.60;5.38;;;21.50;99.90;;;;;;12519591;28;20092;-36
2023/05/22 15:19:18;;;;;;;7.60;5.40;;;21.00;99.90;;;;;;12503820;28;20098;-36
2023/05/22 15:25:20;;;;;;;29.35;8.30;;;20.60;99.90;;;;;;12485723;28;20385;-36
2023/05/22 15:31:29;;;;;;;22.35;7.72;;;20.30;99.90;;;;;;12508481;28;20054;-36
2023/05/22 15:37:35;;;;;;;18.77;7.43;;;18.80;99.90;;;;;;12493163;28;20053;-36
2023/05/22 15:43:39;;;;;;;14.43;6.90;;;18.00;99.90;;;;;;12490439;28;20095;-36
2023/05/22 15:49:42;;;;;;;11.43;6.78;;;17.90;99.90;;;;;;12487013;28;20055;-37
2023/05/22 15:55:46;;;;;;;12.23;7.35;;;18.00;99.90;;;;;;12510766;28;20268;-36
2023/05/22 16:01:52;;;;;;;11.02;6.57;;;18.10;99.90;;;;;;12511288;28;20042;-36
2023/05/22 16:07:55;;;;;;;12.98;6.82;;;17.80;99.90;;;;;;12492122;28;20068;-36
2023/05/22 16:13:59;;;;;;;11.52;6.88;;;18.10;99.90;;;;;;12497417;28;20065;-38
2023/05/22 16:20:04;;;;;;;11.60;7.53;;;17.90;99.90;;;;;;12510548;28;20041;-38
2023/05/22 16:26:07;;;;;;;14.10;7.30;;;17.60;99.90;;;;;;12472894;28;20052;-38
2023/05/22 16:32:10;;;;;;;12.95;6.68;;;17.70;99.90;;;;;;12485969;28;20041;-38
2023/05/22 16:38:14;;;;;;;11.90;6.40;;;17.90;99.90;;;;;;12490858;28;20112;-38
2023/05/22 16:44:20;;;;;;;17.52;6.32;;;18.40;99.90;;;;;;12460442;28;20079;-38
2023/05/22 16:50:24;;;;;;;14.23;7.57;;;18.40;99.90;;;;;;12498810;28;20056;-38
2023/05/22 16:56:27;;;;;;;12.23;7.07;;;18.10;99.90;;;;;;12496080;28;20037;-39
2023/05/22 17:19:20;;;;;;;9.45;7.20;;;17.60;99.90;;;;;;12442066;28;20458;-39
2023/05/22 17:25:30;;;;;;;12.38;7.95;;;17.30;99.90;;;;;;12401649;28;20400;-39
2023/05/22 17:31:38;;;;;;;13.88;8.20;;;17.20;99.90;;;;;;12406929;28;20463;-38
2023/05/22 17:37:42;;;;;;;10.93;7.93;;;17.50;99.90;;;;;;12367015;28;20105;-39
2023/05/22 17:43:45;;;;;;;10.20;8.27;;;17.50;99.90;;;;;;12392625;28;20092;-39
2023/05/22 17:49:47;;;;;;;11.07;8.40;;;17.50;99.90;;;;;;12386630;28;20049;-39
2023/05/22 17:55:51;;;;;;;12.35;8.43;;;17.40;99.90;;;;;;12402788;28;20061;-39
2023/05/22 18:01:58;;;;;;;12.18;8.63;;;17.20;99.90;;;;;;12413410;28;20050;-39
2023/05/22 18:08:04;;;;;;;9.35;7.28;;;17.30;99.90;;;;;;12409963;28;20050;-39
2023/05/22 18:14:07;;;;;;;11.67;8.20;;;17.50;99.90;;;;;;12408900;28;20054;-39
2023/05/22 18:20:15;;;;;;;12.90;9.48;;;17.50;99.90;;;;;;12374320;28;20321;-39
2023/05/22 18:26:18;;;;;;;14.82;9.18;;;17.10;99.90;;;;;;12377591;28;20656;-39
2023/05/22 18:32:23;;;;;;;14.00;10.30;;;17.00;99.90;;;;;;12374642;28;20050;-39
2023/05/22 18:38:26;;;;;;;15.95;10.00;;;17.10;99.90;;;;;;12383614;28;20089;-39
2023/05/22 18:44:28;;;;;;;15.75;10.85;;;16.60;99.90;;;;;;12378375;28;20038;-39
2023/05/22 18:50:31;;;;;;;17.05;10.82;;;16.60;99.90;;;;;;12387459;28;20050;-40
2023/05/22 18:56:33;;;;;;;13.50;10.55;;;16.70;99.90;;;;;;12378363;28;20055;-38
2023/05/22 19:02:35;;;;;;;13.27;10.05;;;17.00;99.90;;;;;;12365500;28;20417;-38
2023/05/22 19:08:39;;;;;;;13.25;9.77;;;17.00;99.90;;;;;;12371194;28;20419;-38
2023/05/22 19:14:41;;;;;;;11.73;8.45;;;16.90;99.90;;;;;;12363318;28;20137;-39
2023/05/22 19:20:43;;;;;;;12.77;7.20;;;16.80;99.90;;;;;;12372287;28;20054;-39
2023/05/22 19:26:45;;;;;;;9.18;6.40;;;16.50;99.90;;;;;;12366127;28;20979;-38
2023/05/22 19:32:54;;;;;;;12.95;6.05;;;16.60;99.90;;;;;;12372165;28;20043;-39
2023/05/22 19:38:56;;;;;;;9.55;6.55;;;16.60;99.90;;;;;;12365273;28;20165;-38
2023/05/22 19:44:58;;;;;;;6.05;4.25;;;16.60;99.90;;;;;;12367837;28;20043;-38
2023/05/22 19:51:02;;;;;;;7.47;4.65;;;16.70;99.90;;;;;;12366825;28;20058;-38
2023/05/22 19:57:05;;;;;;;8.35;5.45;;;16.70;99.90;;;;;;12362312;28;20057;-39
2023/05/22 20:03:06;;;;;;;7.68;5.60;;;16.60;99.90;;;;;;12366576;28;20384;-38
2023/05/22 20:09:09;;;;;;;9.95;6.53;;;16.50;99.90;;;;;;12378379;28;20158;-39
2023/05/22 20:15:13;;;;;;;9.52;5.80;;;16.80;99.90;;;;;;12372966;28;20518;-38
2023/05/22 20:21:16;;;;;;;9.55;5.85;;;16.90;99.90;;;;;;12357600;28;20069;-38
2023/05/22 20:27:18;;;;;;;8.57;5.90;;;16.80;99.90;;;;;;12374441;28;20408;-39
2023/05/22 20:33:20;;;;;;;10.43;6.80;;;16.70;99.90;;;;;;12362262;28;20062;-39
2023/05/22 20:39:22;;;;;;;9.82;7.45;;;16.70;99.90;;;;;;12374941;28;20418;-38
2023/05/22 20:45:25;;;;;;;10.43;8.00;;;16.60;99.90;;;;;;12368645;28;20527;-38
2023/05/22 20:51:31;;;;;;;10.70;9.07;;;16.70;99.90;;;;;;12364218;28;20125;-39
2023/05/22 20:57:33;;;;;;;12.50;10.10;;;16.60;99.90;;;;;;12366611;28;20553;-38
2023/05/22 21:03:36;;;;;;;13.55;11.40;;;16.50;99.90;;;;;;12359247;28;20100;-38
2023/05/22 21:09:38;;;;;;;20.55;14.02;;;16.50;99.90;;;;;;12374978;28;20137;-39
2023/05/22 21:15:40;;;;;;;18.25;13.98;;;16.40;99.90;;;;;;12367691;28;20058;-39
2023/05/22 21:21:42;;;;;;;19.58;15.02;;;16.40;99.90;;;;;;12386356;28;20065;-39
2023/05/22 21:27:47;;;;;;;21.75;17.77;;;16.40;99.90;;;;;;12373444;28;20046;-39
2023/05/22 21:33:49;;;;;;;25.88;21.55;;;16.30;99.90;;;;;;12367577;28;20044;-39
2023/05/22 21:39:51;;;;;;;30.92;22.80;;;16.40;99.90;;;;;;12368928;28;20061;-37
2023/05/22 21:45:53;;;;;;;29.27;23.23;;;16.40;99.90;;;;;;12366848;28;20412;-38
2023/05/22 21:51:55;;;;;;;38.95;30.50;;;16.40;99.90;;;;;;12384859;28;20057;-38
2023/05/22 21:57:57;;;;;;;48.45;37.05;;;16.30;99.90;;;;;;12389201;28;20062;-37
2023/05/22 22:03:59;;;;;;;50.03;38.42;;;16.30;99.90;;;;;;12372667;28;20070;-38
2023/05/22 22:10:01;;;;;;;46.15;34.80;;;16.30;99.90;;;;;;12367495;28;20054;-37
2023/05/22 22:16:04;;;;;;;44.30;34.75;;;16.30;99.90;;;;;;12373497;28;20058;-37
2023/05/22 22:22:06;;;;;;;40.83;32.10;;;16.10;99.90;;;;;;12373484;28;20050;-37
2023/05/22 22:28:08;;;;;;;38.47;30.20;;;16.10;99.90;;;;;;12370218;28;20046;-37
2023/05/22 22:34:10;;;;;;;35.15;28.92;;;16.20;99.90;;;;;;12374227;28;21043;-36
2023/05/22 22:40:13;;;;;;;33.50;26.08;;;15.80;99.90;;;;;;12369251;28;20061;-37
2023/05/22 22:46:15;;;;;;;31.93;24.00;;;15.70;99.90;;;;;;12373776;28;20146;-37
2023/05/22 22:52:18;;;;;;;31.58;24.08;;;15.80;99.90;;;;;;12372909;28;20047;-37
2023/05/22 22:58:21;;;;;;;27.75;22.67;;;15.70;99.90;;;;;;12372498;28;20089;-38
2023/05/22 23:04:23;;;;;;;33.92;25.33;;;15.40;99.90;;;;;;12337504;28;20047;-37
2023/05/22 23:10:26;;;;;;;33.20;24.75;;;15.40;99.90;;;;;;12327479;28;20050;-37
2023/05/22 23:16:28;;;;;;;31.48;25.60;;;15.50;99.90;;;;;;12332174;28;20075;-37
2023/05/22 23:22:30;;;;;;;35.28;26.95;;;15.50;99.90;;;;;;12325911;28;20051;-37
2023/05/22 23:28:33;;;;;;;36.78;26.00;;;15.50;99.90;;;;;;12325846;28;20077;-37
2023/05/22 23:34:35;;;;;;;29.42;24.75;;;15.00;99.90;;;;;;12355312;28;20038;-37
2023/05/22 23:40:41;;;;;;;30.15;23.50;;;15.00;99.90;;;;;;12359858;28;20054;-37
2023/05/22 23:46:43;;;;;;;33.20;23.23;;;15.00;99.90;;;;;;12364155;28;20047;-38
2023/05/22 23:52:46;;;;;;;28.88;21.55;;;14.80;99.90;;;;;;12360308;28;20050;-37
2023/05/22 23:58:49;;;;;;;21.90;17.95;;;14.70;99.90;;;;;;12362966;28;20069;-37
